M I D A S
Marine Information and Data Acquisition System
Tripno 741 of the Zeeleeuw from 2004-06-29 06:20:40 to 2004-06-29 11:54:46
Back to CruiseResearch ActivitiesStationsMapUnderway DataData graphs

EquipmentUnitsComment
TimeDGPSUTC
LatitudeDGPSDM.mWGS84
LongitudeDGPSDM.mWGS84
HeadingGyrodeg 
SOGDGPSknotsSpeed over ground
COGDGPSdegCourse over ground
DepthEcho soundermeters200 kHz
Missing or incorrect values are displayed as -999
Navigation data collected by the RV Zeeleeuw from 2004-06-29 06:20:40 to 2004-06-29 11:54:46
                                                                                    Next 1000 lines
Time Latitude Longitude Heading SOG COG Depth
2004-06-29 06:20:46 51°13.597 2°56.098 125.5   158 7.3
2004-06-29 06:20:50 51°13.597 2°56.097 124.8 0.1 185 7.3
2004-06-29 06:20:55 51°13.597 2°56.097 123.8 0.1 184 7.2
2004-06-29 06:21:01 51°13.597 2°56.097 122.1 0.1 189 5.5
2004-06-29 06:21:06 51°13.596 2°56.097 120 0.2 199 7.2
2004-06-29 06:21:10 51°13.596 2°56.097 117.9 0.2 225 5.5
2004-06-29 06:21:16 51°13.596 2°56.096 116.2 0.5 274 7.3
2004-06-29 06:21:21 51°13.596 2°56.094 115 0.9 276 7.4
2004-06-29 06:21:26 51°13.597 2°56.092 114.5 1.1 284 7.6
2004-06-29 06:21:30 51°13.597 2°56.089 114.5 1.4 283 8
2004-06-29 06:21:37 51°13.599 2°56.084 115.1 1.9 288 -999
2004-06-29 06:21:42 51°13.599 2°56.079 116.5 2.1 289 -999
2004-06-29 06:21:46 51°13.6 2°56.076 118.3 2.4 292 -999
2004-06-29 06:21:52 51°13.602 2°56.069 120.3 2.7 296 -999
2004-06-29 06:21:57 51°13.604 2°56.064 121.9 2.9 296 -999
2004-06-29 06:22:01 51°13.606 2°56.059 122.9 3.1 298 -999
2004-06-29 06:22:06 51°13.608 2°56.052 123.7 3.4 298 -999
2004-06-29 06:22:12 51°13.611 2°56.044 124.3 3.6 300 -999
2004-06-29 06:22:17 51°13.613 2°56.037 125 3.7 301 -999
2004-06-29 06:22:22 51°13.616 2°56.03 125.8 3.8 301 -999
2004-06-29 06:22:27 51°13.619 2°56.023 126.4 4 302 -999
2004-06-29 06:22:32 51°13.622 2°56.015 126.8 4 302 -999
2004-06-29 06:22:37 51°13.625 2°56.007 127.3 4.2 303 -999
2004-06-29 06:22:42 51°13.629 2°55.999 127.8 4.3 304 -999
2004-06-29 06:22:47 51°13.632 2°55.991 128.1 4.4 304 -999
2004-06-29 06:22:52 51°13.636 2°55.983 128.4 4.5 305 -999
2004-06-29 06:22:57 51°13.639 2°55.975 128.7 4.6 305 -999
2004-06-29 06:23:02 51°13.643 2°55.966 128.7 4.7 305 -999
2004-06-29 06:23:06 51°13.646 2°55.959 128.7 4.8 306 -999
2004-06-29 06:23:12 51°13.651 2°55.949 128.7 4.8 305 -999
2004-06-29 06:23:17 51°13.655 2°55.94 128.5 4.8 305 -999
2004-06-29 06:23:22 51°13.659 2°55.931 128.5 4.8 305 -999
2004-06-29 06:23:26 51°13.662 2°55.924 128.5 4.8 305 -999
2004-06-29 06:23:32 51°13.666 2°55.914 128.8 4.8 305 -999
2004-06-29 06:23:37 51°13.67 2°55.905 129.1 4.8 305 -999
2004-06-29 06:23:42 51°13.674 2°55.897 129.8 4.8 306 -999
2004-06-29 06:23:47 51°13.678 2°55.888 130.4 4.8 307 -999
2004-06-29 06:23:52 51°13.682 2°55.879 131.2 4.9 307 -999
2004-06-29 06:23:57 51°13.686 2°55.871 132.3 4.9 308 -999
2004-06-29 06:24:02 51°13.691 2°55.862 133 5 309 -999
2004-06-29 06:24:06 51°13.694 2°55.855 133.7 5.1 309 -999
2004-06-29 06:24:12 51°13.699 2°55.845 134.2 5.1 310 -999
2004-06-29 06:24:17 51°13.704 2°55.836 134.5 5.2 310 46.5
2004-06-29 06:24:22 51°13.709 2°55.828 134.7 5.2 311 -999
2004-06-29 06:24:26 51°13.713 2°55.821 134.8 5.2 311 -999
2004-06-29 06:24:32 51°13.719 2°55.81 134.9 5.3 311 -999
2004-06-29 06:24:37 51°13.723 2°55.801 135 5.3 311 -999
2004-06-29 06:24:42 51°13.728 2°55.792 135 5.4 311 -999
2004-06-29 06:24:46 51°13.732 2°55.785 134.8 5.3 312 -999
2004-06-29 06:24:52 51°13.738 2°55.775 134.6 5.3 311 -999
2004-06-29 06:24:57 51°13.743 2°55.766 134.5 5.3 311 -999
2004-06-29 06:25:02 51°13.748 2°55.757 134.5 5.3 311 -999
2004-06-29 06:25:06 51°13.752 2°55.75 134.5 5.3 311 -999
2004-06-29 06:25:12 51°13.757 2°55.739 135 5.3 311 -999
2004-06-29 06:25:17 51°13.762 2°55.73 135.8 5.3 312 -999
2004-06-29 06:25:22 51°13.767 2°55.722 136.9 5.3 312 -999
2004-06-29 06:25:26 51°13.771 2°55.715 138.3 5.3 314 -999
2004-06-29 06:25:32 51°13.778 2°55.705 140 5.3 315 -999
2004-06-29 06:25:37 51°13.783 2°55.697 141.6 5.3 317 -999
2004-06-29 06:25:42 51°13.789 2°55.689 143.5 5.4 319 -999
2004-06-29 06:25:47 51°13.794 2°55.682 145.8 5.4 321 -999
2004-06-29 06:25:52 51°13.8 2°55.674 147.7 5.4 322 -999
2004-06-29 06:25:57 51°13.807 2°55.667 149.8 5.4 325 -999
2004-06-29 06:26:02 51°13.813 2°55.661 151.4 5.5 326 -999
2004-06-29 06:26:06 51°13.818 2°55.656 153.7 5.5 328 -999
2004-06-29 06:26:12 51°13.826 2°55.649 155.9 5.5 329 -999
2004-06-29 06:26:17 51°13.833 2°55.643 158 5.4 332 -999
2004-06-29 06:26:22 51°13.84 2°55.638 160 5.4 334 -999
2004-06-29 06:26:27 51°13.847 2°55.633 162.2 5.3 336 -999
2004-06-29 06:26:32 51°13.853 2°55.629 164.5 5.3 339 -999
2004-06-29 06:26:37 51°13.86 2°55.625 167.1 5.3 341 -999
2004-06-29 06:26:42 51°13.867 2°55.622 170 5.2 344 -999
2004-06-29 06:26:47 51°13.874 2°55.619 173.2 5.2 348 -999
2004-06-29 06:26:52 51°13.881 2°55.617 176.3 5.2 351 -999
2004-06-29 06:26:57 51°13.889 2°55.616 179.4 5.2 354 -999
2004-06-29 06:27:02 51°13.896 2°55.616 182 5.2 357 -999
2004-06-29 06:27:06 51°13.902 2°55.616 184.8 5.2 359 -999
2004-06-29 06:27:12 51°13.91 2°55.616 186.5 5.2 1 -999
2004-06-29 06:27:17 51°13.917 2°55.617 188.9 5.2 3 -999
2004-06-29 06:27:22 51°13.925 2°55.618 191.2 5.2 5 -999
2004-06-29 06:27:27 51°13.932 2°55.62 194.5 5.2 7 -999
2004-06-29 06:27:32 51°13.939 2°55.622 196.7 5.2 11 -999
2004-06-29 06:27:37 51°13.946 2°55.625 199.8 5 14 -999
2004-06-29 06:27:42 51°13.952 2°55.627 202.3 4.8 15 -999
2004-06-29 06:27:46 51°13.956 2°55.63 204.7 4.2 18 -999
2004-06-29 06:27:52 51°13.962 2°55.633 206.6 4 19 11.9
2004-06-29 06:27:56 51°13.965 2°55.634 209.2 2.4 22 11.9
2004-06-29 06:28:01 51°13.966 2°55.635 212.3 1.3 13 11.9
2004-06-29 06:28:06 51°13.966 2°55.634 216.4 0.5 341 11.9
2004-06-29 06:28:09 51°13.966 2°55.633 225.4 1.2 245 11.9
2004-06-29 06:28:16 51°13.964 2°55.628 232.8 2.3 243 11.8
2004-06-29 06:28:21 51°13.963 2°55.622 242.5 2.9 249 11.9
2004-06-29 06:28:26 51°13.962 2°55.614 252 3.3 254 12.1
2004-06-29 06:28:30 51°13.961 2°55.608 261.1 3.7 262 11.8
2004-06-29 06:28:37 51°13.962 2°55.595 269.9 4.3 275 12.2
2004-06-29 06:28:41 51°13.963 2°55.586 278.7 4.6 281 12.1
2004-06-29 06:28:46 51°13.965 2°55.576 287.6 4.9 288 11.9
2004-06-29 06:28:49 51°13.967 2°55.57 296.7 5.2 299 11.7
2004-06-29 06:28:56 51°13.973 2°55.556 306 5.6 308 12.2
2004-06-29 06:29:01 51°13.979 2°55.547 315.3 5.9 315 12.4
2004-06-29 06:29:05 51°13.983 2°55.539 321.1 6.2 317 12.3
2004-06-29 06:29:12 51°13.993 2°55.525 322.7 6.8 318 12.8
2004-06-29 06:29:16 51°14 2°55.517 323.9 7.2 321 12.3
2004-06-29 06:29:21 51°14.008 2°55.507 326.1 7.5 323 11.8
2004-06-29 06:29:26 51°14.017 2°55.497 328.8 7.7 326 11.6
2004-06-29 06:29:32 51°14.028 2°55.487 331.8 7.9 327 11.5
2004-06-29 06:29:36 51°14.036 2°55.48 334.9 8.3 331 11.4
2004-06-29 06:29:41 51°14.047 2°55.471 337.6 8.4 334 11.2
2004-06-29 06:29:46 51°14.057 2°55.463 339.1 8.3 334 11.2
2004-06-29 06:29:50 51°14.065 2°55.457 339.5 8.2 334 11.6
2004-06-29 06:29:56 51°14.078 2°55.448 340.4 8.1 335 11.4
2004-06-29 06:30:01 51°14.088 2°55.441 340.9 8.2 336 11.7
2004-06-29 06:30:06 51°14.099 2°55.434 341.2 8.2 336 11.9
2004-06-29 06:30:10 51°14.107 2°55.428 341.2 8.4 335 12
2004-06-29 06:30:16 51°14.12 2°55.418 340.5 8.7 334 11.9
2004-06-29 06:30:21 51°14.132 2°55.41 339.8 8.9 334 11.7
2004-06-29 06:30:26 51°14.143 2°55.401 339.3 9.1 334 12.1
2004-06-29 06:30:31 51°14.155 2°55.391 339.1 9.4 333 11.8
2004-06-29 06:30:36 51°14.167 2°55.381 338.2 9.7 333 11.7
2004-06-29 06:30:42 51°14.181 2°55.367 335.9 10 329 12.1
2004-06-29 06:30:47 51°14.192 2°55.353 333.1 10.2 326 12.4
2004-06-29 06:30:52 51°14.204 2°55.339 330 10.4 323 11.9
2004-06-29 06:30:57 51°14.215 2°55.324 327.2 10.6 321 11.9
2004-06-29 06:31:02 51°14.226 2°55.308 325.9 10.7 319 11.9
2004-06-29 06:31:07 51°14.238 2°55.293 325.2 10.8 319 12.5
2004-06-29 06:31:12 51°14.249 2°55.277 324 10.9 318 11.8
2004-06-29 06:31:17 51°14.259 2°55.26 322.2 10.9 316 11.6
2004-06-29 06:31:22 51°14.27 2°55.242 320.6 11 314 11.9
2004-06-29 06:31:27 51°14.28 2°55.224 319.3 11 313 11.8
2004-06-29 06:31:32 51°14.29 2°55.205 318.2 11.1 312 11.7
2004-06-29 06:31:37 51°14.3 2°55.187 317.1 11.1 311 11.8
2004-06-29 06:31:42 51°14.31 2°55.168 316.4 11.2 311 11.8
2004-06-29 06:31:47 51°14.321 2°55.149 316.7 11.4 312 11.8
2004-06-29 06:31:52 51°14.332 2°55.13 317.4 11.5 312 11.8
2004-06-29 06:31:57 51°14.343 2°55.111 317.5 11.9 314 11.5
2004-06-29 06:32:02 51°14.355 2°55.092 317.5 12 314 11.1
2004-06-29 06:32:07 51°14.367 2°55.074 319 12.1 316 11.4
2004-06-29 06:32:11 51°14.378 2°55.06 321.8 12.3 319 11.3
2004-06-29 06:32:17 51°14.394 2°55.039 323.8 12.7 321 11.6
2004-06-29 06:32:22 51°14.408 2°55.021 324.5 12.8 321 11.5
2004-06-29 06:32:27 51°14.422 2°55.003 324.7 12.9 321 11.4
2004-06-29 06:32:32 51°14.436 2°54.984 324.3 13 320 11.6
2004-06-29 06:32:37 51°14.45 2°54.966 324.2 13.1 321 10.9
2004-06-29 06:32:42 51°14.465 2°54.949 324.9 13.1 322 11.1
2004-06-29 06:32:47 51°14.48 2°54.932 326.4 13.1 324 10.9
2004-06-29 06:32:52 51°14.495 2°54.916 328.5 13.1 326 10.8
2004-06-29 06:32:57 51°14.511 2°54.902 331.3 13.2 329 10.5
2004-06-29 06:33:02 51°14.527 2°54.887 332.7 13.2 329 10.5
2004-06-29 06:33:06 51°14.539 2°54.875 333.2 13.2 329 10.5
2004-06-29 06:33:13 51°14.561 2°54.854 333.2 13.3 329 10.5
2004-06-29 06:33:17 51°14.574 2°54.842 332.9 13.3 330 10.4
2004-06-29 06:33:22 51°14.59 2°54.828 333.7 13.3 331 10.5
2004-06-29 06:33:27 51°14.607 2°54.815 335.2 13.3 332 10.4
2004-06-29 06:33:30 51°14.617 2°54.807 336.7 13.3 333 10.4
2004-06-29 06:33:37 51°14.64 2°54.788 336.7 13.4 334 10.4
2004-06-29 06:33:42 51°14.657 2°54.776 337.5 13.4 335 10.3
2004-06-29 06:33:47 51°14.674 2°54.764 338.6 13.3 335 10.2
2004-06-29 06:33:51 51°14.688 2°54.755 339.9 13.3 336 10.2
2004-06-29 06:34:03 51°14.728 2°54.723 338.5 13.4 334 10.2
2004-06-29 06:34:07 51°14.741 2°54.713 337.5 13.4 333 10.3
2004-06-29 06:34:13 51°14.76 2°54.696 336.7 13.4 332 10.1
2004-06-29 06:34:17 51°14.774 2°54.685 336 13.4 332 10.1
2004-06-29 06:34:23 51°14.793 2°54.668 335.4 13.4 332 10.1
2004-06-29 06:34:27 51°14.806 2°54.657 335.4 13.3 332 10
2004-06-29 06:34:32 51°14.823 2°54.643 335.5 13.4 332 10.1
2004-06-29 06:34:38 51°14.842 2°54.626 335.8 13.4 332 10
2004-06-29 06:34:43 51°14.858 2°54.612 336 13.4 332 9.8
2004-06-29 06:34:47 51°14.871 2°54.601 336 13.3 332 10
2004-06-29 06:34:53 51°14.891 2°54.584 336 13.3 332 9.9
2004-06-29 06:34:58 51°14.907 2°54.57 335.9 13.3 332 10
2004-06-29 06:35:03 51°14.924 2°54.557 336.3 13.3 332 9.9
2004-06-29 06:35:08 51°14.94 2°54.543 336.4 13.3 332 9.7
2004-06-29 06:35:13 51°14.956 2°54.529 336.3 13.3 332 9.6
2004-06-29 06:35:18 51°14.972 2°54.516 336.1 13.2 333 9.4
2004-06-29 06:35:23 51°14.989 2°54.502 336.6 13.3 333 9.4
2004-06-29 06:35:28 51°15.005 2°54.489 336.3 13.2 333 9.3
2004-06-29 06:35:32 51°15.018 2°54.478 336.6 13.2 332 9.2
2004-06-29 06:35:38 51°15.037 2°54.461 336.3 13.2 332 9.1
2004-06-29 06:35:43 51°15.054 2°54.448 336.2 13.2 332 9.2
2004-06-29 06:35:47 51°15.067 2°54.437 336.4 13.2 332 9.2
2004-06-29 06:35:53 51°15.086 2°54.421 336.4 13.2 333 9.2
2004-06-29 06:35:58 51°15.102 2°54.407 336.6 13.2 332 9.3
2004-06-29 06:36:03 51°15.119 2°54.394 336.7 13.3 332 9.4
2004-06-29 06:36:06 51°15.129 2°54.385 336.9 13.3 332 9.4
2004-06-29 06:36:13 51°15.151 2°54.366 336.6 13.3 332 9.5
2004-06-29 06:36:18 51°15.168 2°54.353 336.5 13.3 332 9.5
2004-06-29 06:36:23 51°15.184 2°54.339 336.6 13.3 333 9.4
2004-06-29 06:36:28 51°15.201 2°54.326 336.7 13.4 333 9.5
2004-06-29 06:36:33 51°15.217 2°54.312 336.7 13.3 333 9.6
2004-06-29 06:36:38 51°15.234 2°54.298 336.5 13.4 332 9.7
2004-06-29 06:36:43 51°15.25 2°54.285 336.4 13.4 333 9.8
2004-06-29 06:36:47 51°15.263 2°54.274 336.6 13.4 332 9.8
2004-06-29 06:36:53 51°15.283 2°54.258 336.9 13.5 333 9.9
2004-06-29 06:36:58 51°15.3 2°54.244 336.7 13.4 332 9.9
2004-06-29 06:37:03 51°15.316 2°54.23 336.7 13.4 333 9.9
2004-06-29 06:37:07 51°15.329 2°54.219 336.7 13.4 332 9.9
2004-06-29 06:37:13 51°15.349 2°54.202 336.2 13.4 331 10.1
2004-06-29 06:37:18 51°15.365 2°54.188 335.6 13.4 331 10.2
2004-06-29 06:37:23 51°15.381 2°54.173 335 13.4 331 10.1
2004-06-29 06:37:28 51°15.397 2°54.159 334.9 13.4 331 10.2
2004-06-29 06:37:33 51°15.414 2°54.144 334.9 13.4 331 10.2
2004-06-29 06:37:38 51°15.43 2°54.13 334.8 13.4 331 10.4
2004-06-29 06:37:43 51°15.446 2°54.115 334.8 13.4 330 10.5
2004-06-29 06:37:47 51°15.459 2°54.103 335 13.3 331 10.6
2004-06-29 06:37:53 51°15.478 2°54.086 334.5 13.4 331 10.8
2004-06-29 06:37:58 51°15.494 2°54.071 334.8 13.4 330 10.7
2004-06-29 06:38:03 51°15.51 2°54.056 335 13.4 330 10.8
2004-06-29 06:38:06 51°15.52 2°54.048 334.9 13.4 330 10.9
2004-06-29 06:38:14 51°15.545 2°54.024 334.5 13.4 330 11
2004-06-29 06:38:18 51°15.558 2°54.012 334.8 13.4 330 11
2004-06-29 06:38:23 51°15.574 2°53.998 335 13.4 330 11
2004-06-29 06:38:27 51°15.587 2°53.986 335.1 13.4 330 11.2
2004-06-29 06:38:33 51°15.607 2°53.968 334.9 13.4 330 11.2
2004-06-29 06:38:38 51°15.623 2°53.954 335 13.4 330 11.3
2004-06-29 06:38:43 51°15.639 2°53.939 334.7 13.4 330 11.3
2004-06-29 06:38:47 51°15.652 2°53.927 335.2 13.4 330 11.4
2004-06-29 06:38:53 51°15.671 2°53.911 336.3 13.3 332 11.5
2004-06-29 06:38:58 51°15.688 2°53.898 337 13.3 334 11.6
2004-06-29 06:39:03 51°15.704 2°53.885 338 13.3 334 11.7
2004-06-29 06:39:07 51°15.718 2°53.874 338.3 13.3 334 11.8
2004-06-29 06:39:13 51°15.738 2°53.859 338.1 13.3 334 11.8
2004-06-29 06:39:18 51°15.754 2°53.846 338.4 13.3 334 11.9
2004-06-29 06:39:23 51°15.771 2°53.833 338.4 13.3 334 11.9
2004-06-29 06:39:27 51°15.784 2°53.822 338.7 13.3 334 12
2004-06-29 06:39:33 51°15.804 2°53.807 338.4 13.2 334 12
2004-06-29 06:39:38 51°15.82 2°53.794 338.3 13.3 334 12
2004-06-29 06:39:43 51°15.837 2°53.781 338.4 13.3 334 12.1
2004-06-29 06:39:47 51°15.85 2°53.77 338.4 13.3 334 12.1
2004-06-29 06:39:53 51°15.87 2°53.755 338.5 13.2 335 12.2
2004-06-29 06:39:58 51°15.886 2°53.743 338.8 13.2 334 12.1
2004-06-29 06:40:03 51°15.903 2°53.73 339.3 13.3 335 12.1
2004-06-29 06:40:07 51°15.916 2°53.72 338.9 13.2 335 12.2
2004-06-29 06:40:13 51°15.936 2°53.705 338.6 13.2 334 12.3
2004-06-29 06:40:18 51°15.952 2°53.692 338.2 13.2 334 12.2
2004-06-29 06:40:23 51°15.969 2°53.679 338 13.2 334 12.4
2004-06-29 06:40:28 51°15.985 2°53.666 338 13.3 334 12.4
2004-06-29 06:40:33 51°16.002 2°53.654 338.5 13.3 334 12.4
2004-06-29 06:40:38 51°16.019 2°53.641 338.7 13.3 335 12.5
2004-06-29 06:40:43 51°16.035 2°53.628 338.6 13.3 334 12.4
2004-06-29 06:40:47 51°16.048 2°53.618 338.2 13.3 334 12.5
2004-06-29 06:40:53 51°16.068 2°53.603 338 13.3 334 12.6
2004-06-29 06:40:58 51°16.085 2°53.59 338.2 13.3 334 12.6
2004-06-29 06:41:03 51°16.102 2°53.577 338 13.3 334 12.7
2004-06-29 06:41:07 51°16.115 2°53.567 338.4 13.3 334 12.7
2004-06-29 06:41:13 51°16.135 2°53.552 338.4 13.3 335 12.8
2004-06-29 06:41:17 51°16.148 2°53.541 338.5 13.3 334 12.8
2004-06-29 06:41:23 51°16.168 2°53.526 338.2 13.3 335 12.9
2004-06-29 06:41:27 51°16.182 2°53.516 338.5 13.3 335 12.9
2004-06-29 06:41:33 51°16.201 2°53.501 338.7 13.3 335 12.8
2004-06-29 06:41:38 51°16.218 2°53.489 338.5 13.3 335 13
2004-06-29 06:41:43 51°16.235 2°53.476 338.6 13.3 334 12.9
2004-06-29 06:41:47 51°16.248 2°53.466 338.2 13.2 334 12.9
2004-06-29 06:41:53 51°16.268 2°53.451 338.2 13.2 334 12.9
2004-06-29 06:41:58 51°16.284 2°53.438 338.2 13.2 335 13
2004-06-29 06:42:03 51°16.301 2°53.425 338.1 13.2 334 13
2004-06-29 06:42:07 51°16.314 2°53.415 337.9 13.2 334 13
2004-06-29 06:42:11 51°16.327 2°53.405 338.2 13.2 335 13
2004-06-29 06:42:17 51°16.347 2°53.39 338.4 13.2 335 13
2004-06-29 06:42:23 51°16.367 2°53.375 338.2 13.2 334 13.1
2004-06-29 06:42:26 51°16.377 2°53.367 338.2 13.3 335 13.1
2004-06-29 06:42:33 51°16.4 2°53.349 338.3 13.2 334 13.1
2004-06-29 06:42:38 51°16.416 2°53.337 338.2 13.2 335 13.1
2004-06-29 06:42:43 51°16.433 2°53.324 338.2 13.3 335 13
2004-06-29 06:42:48 51°16.45 2°53.312 338.3 13.3 334 13.2
2004-06-29 06:42:54 51°16.469 2°53.296 338.2 13.2 334 13.1
2004-06-29 06:42:58 51°16.482 2°53.286 337.9 13.2 334 13
2004-06-29 06:43:03 51°16.499 2°53.273 338.1 13.2 335 13.1
2004-06-29 06:43:07 51°16.512 2°53.263 338.2 13.2 334 13.2
2004-06-29 06:43:13 51°16.532 2°53.248 338.2 13.2 334 12.9
2004-06-29 06:43:18 51°16.549 2°53.236 338.1 13.2 334 12.9
2004-06-29 06:43:23 51°16.565 2°53.223 338.2 13.2 334 12.8
2004-06-29 06:43:28 51°16.582 2°53.21 338.2 13.2 335 12.9
2004-06-29 06:43:33 51°16.598 2°53.198 338 13.2 334 12.8
2004-06-29 06:43:38 51°16.615 2°53.186 338.3 13.2 335 12.6
2004-06-29 06:43:43 51°16.631 2°53.173 338.4 13.2 334 12.5
2004-06-29 06:43:47 51°16.644 2°53.163 338.2 13.2 335 12.5
2004-06-29 06:43:52 51°16.661 2°53.15 338.2 13.1 335 12.4
2004-06-29 06:43:58 51°16.68 2°53.135 338.2 13.1 334 12.3
2004-06-29 06:44:03 51°16.697 2°53.123 338.1 13.2 334 12.3
2004-06-29 06:44:06 51°16.707 2°53.115 337.8 13.2 334 12.2
2004-06-29 06:44:13 51°16.73 2°53.097 338 13.2 334 12.2
2004-06-29 06:44:18 51°16.746 2°53.084 338.2 13.2 334 12.2
2004-06-29 06:44:23 51°16.763 2°53.071 338.1 13.1 334 11.9
2004-06-29 06:44:28 51°16.779 2°53.059 337.9 13.1 334 12
2004-06-29 06:44:34 51°16.799 2°53.044 338.2 13.1 334 11.7
2004-06-29 06:44:38 51°16.812 2°53.034 338.6 13.1 335 11.1
2004-06-29 06:44:43 51°16.828 2°53.022 338.2 13 334 10.8
2004-06-29 06:44:47 51°16.841 2°53.012 338.3 13 334 9.8
2004-06-29 06:44:53 51°16.86 2°52.997 338.2 12.9 334 9.5
2004-06-29 06:44:58 51°16.876 2°52.985 338 12.8 334 9.3
2004-06-29 06:45:03 51°16.892 2°52.973 338 12.7 334 9.4
2004-06-29 06:45:07 51°16.905 2°52.963 338.5 12.7 335 9.5
2004-06-29 06:45:11 51°16.918 2°52.953 338.7 12.8 334 9.7
2004-06-29 06:45:17 51°16.937 2°52.938 338.6 12.9 334 9.8
2004-06-29 06:45:23 51°16.956 2°52.922 337.8 12.9 332 9.8
2004-06-29 06:45:26 51°16.966 2°52.914 336.5 13 331 9.9
2004-06-29 06:45:33 51°16.987 2°52.894 335.8 13 330 9.9
2004-06-29 06:45:38 51°17.003 2°52.88 335 13 331 10.1
2004-06-29 06:45:43 51°17.019 2°52.866 334.8 13.1 331 10.5
2004-06-29 06:45:48 51°17.035 2°52.851 334.9 13.2 331 10.5
2004-06-29 06:45:53 51°17.051 2°52.838 335.1 13.2 331 10.5
2004-06-29 06:45:58 51°17.067 2°52.824 335.3 13.2 331 10.8
2004-06-29 06:46:03 51°17.084 2°52.81 335.3 13.2 331 10.8
2004-06-29 06:46:07 51°17.096 2°52.799 335.3 13.2 331 11
2004-06-29 06:46:13 51°17.115 2°52.781 335.1 13.2 331 10.9
2004-06-29 06:46:18 51°17.131 2°52.767 335.1 13.2 330 10.9
2004-06-29 06:46:23 51°17.147 2°52.752 334.6 13.2 330 10.9
2004-06-29 06:46:28 51°17.163 2°52.738 334.9 13.2 331 10.7
2004-06-29 06:46:32 51°17.176 2°52.727 335.2 13.1 331 10.4
2004-06-29 06:46:37 51°17.192 2°52.713 335 13.1 331 10.6
2004-06-29 06:46:43 51°17.211 2°52.696 335.3 13.1 331 10.6
2004-06-29 06:46:47 51°17.223 2°52.685 335.5 13.1 331 10.4
2004-06-29 06:46:53 51°17.243 2°52.668 335.8 13 331 10.5
2004-06-29 06:46:58 51°17.258 2°52.654 335.7 13.1 331 10.5
2004-06-29 06:47:03 51°17.274 2°52.64 335.3 13 331 10.7
2004-06-29 06:47:06 51°17.284 2°52.632 335.2 13.1 330 10.8
2004-06-29 06:47:13 51°17.306 2°52.611 334.6 13.1 330 10.7
2004-06-29 06:47:18 51°17.322 2°52.597 334.5 13.1 331 11
2004-06-29 06:47:23 51°17.337 2°52.583 334.9 13.1 331 11
2004-06-29 06:47:28 51°17.354 2°52.569 335.4 13.1 332 11
2004-06-29 06:47:33 51°17.37 2°52.555 335.4 13.2 331 11.2
2004-06-29 06:47:38 51°17.385 2°52.541 335.3 13.1 331 10.9
2004-06-29 06:47:43 51°17.401 2°52.526 335 13.2 331 11.1
2004-06-29 06:47:47 51°17.414 2°52.515 334.9 13.2 331 11.1
2004-06-29 06:47:53 51°17.433 2°52.498 335.5 13.2 331 11.2
2004-06-29 06:47:58 51°17.449 2°52.484 335.4 13.1 331 11.3
2004-06-29 06:48:03 51°17.465 2°52.47 335.3 13.1 331 11.2
2004-06-29 06:48:06 51°17.474 2°52.461 335.2 13.2 331 11.2
2004-06-29 06:48:13 51°17.497 2°52.442 335.3 13.2 331 11.2
2004-06-29 06:48:18 51°17.513 2°52.428 335.3 13.2 331 11.3
2004-06-29 06:48:23 51°17.529 2°52.414 335.7 13.2 331 11.5
2004-06-29 06:48:28 51°17.544 2°52.399 335.2 13.1 331 11.4
2004-06-29 06:48:33 51°17.56 2°52.385 335.2 13.1 330 11.4
2004-06-29 06:48:38 51°17.576 2°52.37 334.6 13.1 330 11.3
2004-06-29 06:48:43 51°17.592 2°52.356 334.5 13.1 331 11.5
2004-06-29 06:48:47 51°17.604 2°52.345 335.1 13.1 331 11.3
2004-06-29 06:48:52 51°17.621 2°52.331 335.5 13.1 331 11.2
2004-06-29 06:48:58 51°17.64 2°52.314 335.5 13.1 331 11.3
2004-06-29 06:49:03 51°17.655 2°52.3 335.6 13.1 331 11.4
2004-06-29 06:49:06 51°17.665 2°52.291 335.3 13.1 331 11.3
2004-06-29 06:49:14 51°17.691 2°52.269 335.5 13.2 331 11.4
2004-06-29 06:49:18 51°17.703 2°52.258 335.4 13.2 331 11.3
2004-06-29 06:49:23 51°17.719 2°52.244 335.3 13.1 331 11.4
2004-06-29 06:49:27 51°17.732 2°52.233 335.2 13.1 330 11.2
2004-06-29 06:49:33 51°17.751 2°52.216 335.1 13.1 331 11.4
2004-06-29 06:49:38 51°17.767 2°52.201 335.1 13.1 330 11.3
2004-06-29 06:49:43 51°17.783 2°52.187 334.8 13.1 330 11.2
2004-06-29 06:49:48 51°17.798 2°52.173 334.5 13.1 330 11.3
2004-06-29 06:49:53 51°17.814 2°52.159 334.8 13 331 11.4
2004-06-29 06:49:57 51°17.827 2°52.147 335 13.1 331 11.4
2004-06-29 06:50:03 51°17.846 2°52.131 335.5 13.1 331 11.1
2004-06-29 06:50:08 51°17.862 2°52.117 335.7 13.1 331 11.3
2004-06-29 06:50:13 51°17.878 2°52.103 335.4 13 331 11.4
2004-06-29 06:50:18 51°17.894 2°52.089 335.3 13 330 11.5
2004-06-29 06:50:23 51°17.909 2°52.074 335.1 13.1 331 11.5
2004-06-29 06:50:27 51°17.922 2°52.063 335.2 13.1 331 11.4
2004-06-29 06:50:33 51°17.941 2°52.047 335.2 13.1 331 11.6
2004-06-29 06:50:38 51°17.957 2°52.033 335.5 13.1 331 11.5
2004-06-29 06:50:43 51°17.973 2°52.018 335.6 13.1 331 11.5
2004-06-29 06:50:47 51°17.986 2°52.007 335.3 13.1 331 11.5
2004-06-29 06:50:53 51°18.005 2°51.99 335.3 13.1 331 11.7
2004-06-29 06:50:58 51°18.02 2°51.976 335.2 13.1 331 11.4
2004-06-29 06:51:03 51°18.036 2°51.962 335.2 13.1 331 11.5
2004-06-29 06:51:07 51°18.049 2°51.951 335 13.1 330 11.7
2004-06-29 06:51:11 51°18.061 2°51.939 334.9 13.1 331 11.5
2004-06-29 06:51:17 51°18.08 2°51.922 335.2 13.1 331 11.8
2004-06-29 06:51:22 51°18.096 2°51.908 335.2 13.1 331 11.6
2004-06-29 06:51:28 51°18.115 2°51.891 335.2 13.1 331 11.9
2004-06-29 06:51:34 51°18.134 2°51.874 335.2 13.1 331 12
2004-06-29 06:51:38 51°18.147 2°51.863 335.3 13 331 11.9
2004-06-29 06:51:43 51°18.163 2°51.849 335.3 13.1 331 12
2004-06-29 06:51:48 51°18.179 2°51.835 335.4 13.1 331 12.1
2004-06-29 06:51:53 51°18.194 2°51.82 335.4 13 330 12.2
2004-06-29 06:51:58 51°18.21 2°51.805 334.7 13 329 12.2
2004-06-29 06:52:03 51°18.224 2°51.787 331.8 13 324 12.4
2004-06-29 06:52:08 51°18.238 2°51.77 328.8 13 322 12.4
2004-06-29 06:52:13 51°18.251 2°51.75 326 13 319 12.5
2004-06-29 06:52:18 51°18.265 2°51.732 324 13 319 12.6
2004-06-29 06:52:23 51°18.278 2°51.711 322.5 13 317 12.8
2004-06-29 06:52:27 51°18.288 2°51.696 321.5 13 317 12.8
2004-06-29 06:52:33 51°18.303 2°51.672 320.9 13 315 12.9
2004-06-29 06:52:38 51°18.316 2°51.651 320.4 13 315 13
2004-06-29 06:52:43 51°18.329 2°51.631 319.9 13 314 13.1
2004-06-29 06:52:47 51°18.339 2°51.614 319.6 13.1 315 13.2
2004-06-29 06:52:53 51°18.354 2°51.59 319.6 13.1 315 13.3
2004-06-29 06:52:58 51°18.368 2°51.57 319.7 13 315 13.4
2004-06-29 06:53:03 51°18.38 2°51.549 320.1 13.1 315 13.5
2004-06-29 06:53:07 51°18.391 2°51.533 320 13.1 315 13.5
2004-06-29 06:53:11 51°18.401 2°51.517 320 13.1 316 13.7
2004-06-29 06:53:17 51°18.416 2°51.492 319.8 13 314 13.8
2004-06-29 06:53:22 51°18.429 2°51.472 319.7 13 316 13.8
2004-06-29 06:53:28 51°18.444 2°51.447 319.9 13 315 14
2004-06-29 06:53:33 51°18.457 2°51.427 320 13.1 315 14.3
2004-06-29 06:53:38 51°18.47 2°51.407 320 13 316 14.2
2004-06-29 06:53:43 51°18.483 2°51.387 320.4 13 316 14.3
2004-06-29 06:53:48 51°18.496 2°51.367 320.6 13 315 14.4
2004-06-29 06:53:53 51°18.509 2°51.346 320.1 13.1 315 14.5
2004-06-29 06:53:58 51°18.522 2°51.326 320.4 13.1 315 14.7
2004-06-29 06:54:03 51°18.535 2°51.306 320.2 13.1 315 14.7
2004-06-29 06:54:08 51°18.548 2°51.285 320.1 13.1 316 14.8
2004-06-29 06:54:13 51°18.561 2°51.265 320.6 13.1 316 14.9
2004-06-29 06:54:18 51°18.574 2°51.245 320.8 13.1 316 14.9
2004-06-29 06:54:23 51°18.587 2°51.225 320.8 13.1 316 15
2004-06-29 06:54:27 51°18.597 2°51.209 320.8 13.1 315 15.1
2004-06-29 06:54:33 51°18.613 2°51.184 320.4 13.1 315 15.1
2004-06-29 06:54:38 51°18.626 2°51.164 320.3 13.1 316 15.1
2004-06-29 06:54:43 51°18.639 2°51.144 320.5 13.1 316 15.2
2004-06-29 06:54:46 51°18.646 2°51.132 320.7 13 315 15.3
2004-06-29 06:54:53 51°18.664 2°51.103 320.2 13.1 315 15.4
2004-06-29 06:54:58 51°18.677 2°51.083 320.4 13.1 316 15.3
2004-06-29 06:55:03 51°18.69 2°51.063 320.8 13.1 316 15.4
2004-06-29 06:55:08 51°18.703 2°51.042 321 13 316 15.3
2004-06-29 06:55:14 51°18.719 2°51.018 320.7 13.1 315 15.6
2004-06-29 06:55:17 51°18.726 2°51.006 320.6 13.1 316 15.6
2004-06-29 06:55:23 51°18.742 2°50.982 320.8 13.1 316 15.6
2004-06-29 06:55:27 51°18.753 2°50.966 320.8 13.1 316 15.7
2004-06-29 06:55:31 51°18.763 2°50.95 320.6 13.1 316 15.7
2004-06-29 06:55:38 51°18.781 2°50.922 320.8 13.1 316 15.7
2004-06-29 06:55:43 51°18.795 2°50.902 320.9 13.1 316 15.8
2004-06-29 06:55:47 51°18.805 2°50.886 321.3 13.1 317 15.8
2004-06-29 06:55:53 51°18.821 2°50.862 321.3 13.1 316 15.8
2004-06-29 06:55:58 51°18.834 2°50.842 321.2 13.1 317 15.9
2004-06-29 06:56:03 51°18.847 2°50.822 321.1 13.1 316 15.8
2004-06-29 06:56:06 51°18.855 2°50.81 321 13.1 316 15.8
2004-06-29 06:56:12 51°18.871 2°50.786 320.8 13.1 317 15.9
2004-06-29 06:56:17 51°18.884 2°50.766 320.8 13.1 317 15.8
2004-06-29 06:56:23 51°18.9 2°50.742 321.4 13.1 317 15.8
2004-06-29 06:56:27 51°18.911 2°50.726 321.5 13.1 317 15.9
2004-06-29 06:56:33 51°18.926 2°50.702 321.3 13.1 317 15.8
2004-06-29 06:56:38 51°18.94 2°50.683 321.1 13.1 317 15.7
2004-06-29 06:56:43 51°18.953 2°50.663 321 13 316 15.8
2004-06-29 06:56:47 51°18.963 2°50.647 320.9 13.1 317 15.6
2004-06-29 06:56:53 51°18.979 2°50.623 320.8 13.1 317 15.5
2004-06-29 06:56:57 51°18.99 2°50.607 321.1 13.1 317 15.7
2004-06-29 06:57:03 51°19.006 2°50.584 321.1 13.1 317 15.5
2004-06-29 06:57:07 51°19.016 2°50.568 320.8 13.1 317 15.4
2004-06-29 06:57:13 51°19.032 2°50.544 320.8 13.1 317 15.4
2004-06-29 06:57:18 51°19.045 2°50.525 320.8 13.1 317 15.1
2004-06-29 06:57:22 51°19.056 2°50.509 320.9 13.1 317 14.8
2004-06-29 06:57:28 51°19.072 2°50.485 321.2 13 317 14.7
2004-06-29 06:57:33 51°19.085 2°50.465 321 13 317 14.8
2004-06-29 06:57:38 51°19.098 2°50.446 321 13 317 14.4
2004-06-29 06:57:43 51°19.112 2°50.426 320.9 13 317 14.5
2004-06-29 06:57:47 51°19.123 2°50.411 321.3 13 318 14.4
2004-06-29 06:57:53 51°19.139 2°50.387 321.2 13 317 14.4
2004-06-29 06:57:57 51°19.149 2°50.372 321.2 13 317 14.2
2004-06-29 06:58:03 51°19.165 2°50.348 321 13 317 14.1
2004-06-29 06:58:07 51°19.176 2°50.333 321 13 317 13.7
2004-06-29 06:58:13 51°19.192 2°50.309 320.9 13 317 13.7
2004-06-29 06:58:18 51°19.205 2°50.29 321.1 13 317 13.6
2004-06-29 06:58:21 51°19.213 2°50.278 320.9 13 317 13.4
2004-06-29 06:58:27 51°19.229 2°50.254 320.9 13 317 13.3
2004-06-29 06:58:33 51°19.245 2°50.231 320.8 13 317 13
2004-06-29 06:58:38 51°19.258 2°50.212 321.2 12.9 317 12.9
2004-06-29 06:58:42 51°19.269 2°50.196 321 13 317 12.9
2004-06-29 06:58:47 51°19.282 2°50.177 321 12.9 317 12.8
2004-06-29 06:58:53 51°19.298 2°50.153 321.1 12.9 318 12.8
2004-06-29 06:58:58 51°19.311 2°50.134 321.4 12.9 318 12.8
2004-06-29 06:59:03 51°19.324 2°50.114 321.5 12.9 317 12.9
2004-06-29 06:59:07 51°19.335 2°50.099 321.2 12.9 317 12.6
2004-06-29 06:59:13 51°19.35 2°50.075 321.2 12.9 317 12.5
2004-06-29 06:59:18 51°19.363 2°50.056 320.8 12.9 317 12.3
2004-06-29 06:59:23 51°19.376 2°50.036 320.8 12.9 317 12.3
2004-06-29 06:59:26 51°19.384 2°50.025 321 12.9 317 12.7
2004-06-29 06:59:33 51°19.402 2°49.998 321.4 12.9 317 13.1
2004-06-29 06:59:37 51°19.412 2°49.981 320.8 12.9 314 13.3
2004-06-29 06:59:43 51°19.427 2°49.956 318.6 13 314 13.7
2004-06-29 06:59:48 51°19.439 2°49.934 317.4 12.9 312 14
2004-06-29 06:59:53 51°19.451 2°49.913 316.4 13 311 14.3
2004-06-29 06:59:58 51°19.463 2°49.891 315.7 13 311 14.5
2004-06-29 07:00:03 51°19.474 2°49.869 315 13 311 14.7
2004-06-29 07:00:05 51°19.479 2°49.86 314.7 13 310 14.9
2004-06-29 07:00:13 51°19.497 2°49.825 314.2 13 310 14.9
2004-06-29 07:00:17 51°19.506 2°49.807 314.2 13 310 15
2004-06-29 07:00:23 51°19.52 2°49.78 314.7 13 310 14.9
2004-06-29 07:00:28 51°19.532 2°49.758 314.8 13 310 14.7
2004-06-29 07:00:33 51°19.544 2°49.737 315 13 311 14.9
2004-06-29 07:00:38 51°19.556 2°49.715 315.2 13 311 14.9
2004-06-29 07:00:43 51°19.567 2°49.693 315 13 310 15.2
2004-06-29 07:00:48 51°19.579 2°49.671 314.4 13 310 15.4
2004-06-29 07:00:53 51°19.59 2°49.649 314.7 13 310 15.7
2004-06-29 07:00:58 51°19.602 2°49.627 314.6 13 310 16
2004-06-29 07:01:03 51°19.614 2°49.605 314.6 13.1 310 16.3
2004-06-29 07:01:07 51°19.623 2°49.587 314.6 13 310 16.6
2004-06-29 07:01:13 51°19.637 2°49.56 314.8 13 310 16.6
2004-06-29 07:01:18 51°19.648 2°49.538 314.7 12.9 309 16.8
2004-06-29 07:01:23 51°19.659 2°49.516 314.5 12.9 309 17.1
2004-06-29 07:01:26 51°19.665 2°49.501 311.8 12.9 306 17.1
2004-06-29 07:01:34 51°19.678 2°49.461 307.6 12.8 298 17.2
2004-06-29 07:01:38 51°19.684 2°49.44 303.2 12.8 295 17.4
2004-06-29 07:01:43 51°19.691 2°49.414 299 12.8 292 17.4
2004-06-29 07:01:48 51°19.697 2°49.387 297.3 12.9 290 17.7
2004-06-29 07:01:53 51°19.702 2°49.36 295.4 12.9 289 17.9
2004-06-29 07:01:58 51°19.708 2°49.332 293.9 13 287 18.3
2004-06-29 07:02:03 51°19.713 2°49.305 292.6 13 287 18.8
2004-06-29 07:02:08 51°19.718 2°49.277 292.1 13 287 18.7
2004-06-29 07:02:10 51°19.72 2°49.266 291.7 13.1 286 18.7
2004-06-29 07:02:18 51°19.728 2°49.222 291.7 13.1 286 18.8
2004-06-29 07:02:23 51°19.733 2°49.194 291.2 13.1 286 19
2004-06-29 07:02:28 51°19.738 2°49.166 291 13.1 286 19.2
2004-06-29 07:02:33 51°19.743 2°49.138 290.8 13.1 286 19.3
2004-06-29 07:02:37 51°19.747 2°49.116 290.8 13.1 286 19.5
2004-06-29 07:02:43 51°19.753 2°49.082 291 13.1 286 19.6
2004-06-29 07:02:48 51°19.757 2°49.054 291.1 13.1 285 19.8
2004-06-29 07:02:52 51°19.761 2°49.032 290.7 13.1 283 19.9
2004-06-29 07:02:57 51°19.765 2°49.003 288.8 13.1 282 20.1
2004-06-29 07:03:03 51°19.768 2°48.969 286.5 13.1 281 20.3
2004-06-29 07:03:06 51°19.77 2°48.952 285.5 13.1 280 20.4
2004-06-29 07:03:13 51°19.774 2°48.911 284.6 13.1 279 20.6
2004-06-29 07:03:17 51°19.776 2°48.888 283.9 13.2 278 20.7
2004-06-29 07:03:23 51°19.778 2°48.853 283 13.2 277 20.8
2004-06-29 07:03:28 51°19.781 2°48.825 282.8 13.2 278 21
2004-06-29 07:03:33 51°19.783 2°48.795 282.9 13.2 278 21.2
2004-06-29 07:03:37 51°19.785 2°48.772 283 13.2 278 21.4
2004-06-29 07:03:43 51°19.788 2°48.738 283 13.2 278 21.5
2004-06-29 07:03:48 51°19.79 2°48.708 282.8 13.2 277 21.8
2004-06-29 07:03:53 51°19.793 2°48.68 283 13.2 278 21.9
2004-06-29 07:03:57 51°19.795 2°48.657 283.1 13.2 278 22.1
2004-06-29 07:04:03 51°19.799 2°48.622 284.1 13.2 280 22.2
2004-06-29 07:04:08 51°19.802 2°48.593 284.9 13.2 280 22.5
2004-06-29 07:04:13 51°19.806 2°48.564 285.3 13.2 280 22.6
2004-06-29 07:04:26 51°19.814 2°48.489 284.9 13.3 280 23
2004-06-29 07:04:30 51°19.816 2°48.466 285.1 13.3 280 23.1
2004-06-29 07:04:33 51°19.818 2°48.449 285.5 13.2 281 23.2
2004-06-29 07:04:41 51°19.824 2°48.403 285.5 13.3 280 23.3
2004-06-29 07:04:46 51°19.827 2°48.375 285.6 13.2 280 23.3
2004-06-29 07:04:50 51°19.83 2°48.351 285.6 13.2 281 23.4
2004-06-29 07:04:56 51°19.834 2°48.317 285.3 13.2 280 23.5
2004-06-29 07:05:00 51°19.837 2°48.294 285.5 13.2 281 23.5
2004-06-29 07:05:05 51°19.84 2°48.265 285.6 13.2 280 23.3
2004-06-29 07:05:10 51°19.843 2°48.236 285.5 13.2 281 23.5
2004-06-29 07:05:14 51°19.846 2°48.213 285.4 13.2 280 23.4
2004-06-29 07:05:20 51°19.85 2°48.178 285.4 13.2 281 23.5
2004-06-29 07:05:25 51°19.853 2°48.15 285.9 13.2 281 23.5
2004-06-29 07:05:30 51°19.857 2°48.121 286 13.2 281 23.6
2004-06-29 07:05:36 51°19.861 2°48.087 285.9 13.2 281 23.6
2004-06-29 07:05:40 51°19.863 2°48.064 285.7 13.2 281 23.5
2004-06-29 07:05:44 51°19.866 2°48.041 285.7 13.2 281 23.5
2004-06-29 07:05:49 51°19.869 2°48.012 285.8 13.2 281 23.5
2004-06-29 07:05:55 51°19.873 2°47.978 285.4 13.2 280 23.5
2004-06-29 07:06:00 51°19.877 2°47.95 285.9 13.1 281 23.6
2004-06-29 07:06:05 51°19.88 2°47.921 285.9 13.1 281 23.5
2004-06-29 07:06:10 51°19.884 2°47.893 285.8 13.1 281 23.5
2004-06-29 07:06:14 51°19.887 2°47.87 285.9 13.2 281 23.5
2004-06-29 07:06:20 51°19.891 2°47.836 285.9 13.1 281 23.5
2004-06-29 07:06:25 51°19.894 2°47.807 286 13.1 281 23.5
2004-06-29 07:06:30 51°19.898 2°47.778 285.9 13.2 281 23.5
2004-06-29 07:06:36 51°19.902 2°47.744 285.9 13.1 281 23.5
2004-06-29 07:06:40 51°19.905 2°47.721 285.6 13.2 281 23.5
2004-06-29 07:06:45 51°19.908 2°47.693 285.8 13.1 281 23.4
2004-06-29 07:06:49 51°19.911 2°47.67 285.9 13.2 281 23.4
2004-06-29 07:06:55 51°19.916 2°47.636 286.4 13.1 282 23.3
2004-06-29 07:07:00 51°19.919 2°47.607 286.5 13.1 282 23.3
2004-06-29 07:07:05 51°19.923 2°47.579 286.6 13.1 281 23.4
2004-06-29 07:07:10 51°19.926 2°47.55 285.9 13.1 281 23.2
2004-06-29 07:07:14 51°19.929 2°47.528 285.9 13.1 281 23.2
2004-06-29 07:07:20 51°19.933 2°47.493 285.8 13.1 281 23.1
2004-06-29 07:07:25 51°19.937 2°47.465 285.7 13.1 282 22.9
2004-06-29 07:07:30 51°19.941 2°47.437 286.2 13.1 282 22.9
2004-06-29 07:07:36 51°19.946 2°47.403 286.5 13 283 22.9
2004-06-29 07:07:40 51°19.949 2°47.38 286.7 13 282 22.8
2004-06-29 07:07:45 51°19.953 2°47.352 286.6 13 282 22.8
2004-06-29 07:07:49 51°19.955 2°47.329 286.4 13 281 22.6
2004-06-29 07:07:55 51°19.96 2°47.296 286.3 13.1 282 22.3
2004-06-29 07:08:00 51°19.964 2°47.267 286.2 13 282 22.4
2004-06-29 07:08:05 51°19.967 2°47.239 286.2 13 282 22.3
2004-06-29 07:08:10 51°19.971 2°47.211 286 13 282 22.1
2004-06-29 07:08:13 51°19.973 2°47.194 285.5 13 281 22
2004-06-29 07:08:20 51°19.978 2°47.155 285.7 13 281 21.8
2004-06-29 07:08:25 51°19.982 2°47.127 285.9 13 282 21.7
2004-06-29 07:08:30 51°19.986 2°47.098 286.3 13 283 20.7
2004-06-29 07:08:36 51°19.991 2°47.065 286.6 13 282 20.8
2004-06-29 07:08:40 51°19.993 2°47.042 286.6 13 283 21.2
2004-06-29 07:08:45 51°19.997 2°47.014 286.2 13 282 21.2
2004-06-29 07:08:49 51°20 2°46.992 286.2 13 282 21.2
2004-06-29 07:08:56 51°20.005 2°46.952 286 13 281 21.1
2004-06-29 07:09:00 51°20.008 2°46.93 285.6 13 282 20.8
2004-06-29 07:09:05 51°20.012 2°46.901 285.9 13 282 20.4
2004-06-29 07:09:10 51°20.015 2°46.874 286.3 13 282 19.3
2004-06-29 07:09:15 51°20.019 2°46.846 286.5 13 282 18.9
2004-06-29 07:09:19 51°20.021 2°46.824 286.2 12.9 282 19.4
2004-06-29 07:09:25 51°20.026 2°46.79 286 12.9 282 18.4
2004-06-29 07:09:29 51°20.028 2°46.767 285.8 12.9 281 19.2
2004-06-29 07:09:36 51°20.034 2°46.728 285.9 12.9 282 19.5
2004-06-29 07:09:40 51°20.037 2°46.706 286.3 12.9 282 19
2004-06-29 07:09:45 51°20.04 2°46.678 286.3 12.9 282 17.4
2004-06-29 07:09:49 51°20.043 2°46.656 285.9 12.9 282 18.2
2004-06-29 07:09:56 51°20.049 2°46.617 286.3 12.9 283 16.4
2004-06-29 07:10:00 51°20.052 2°46.595 286.6 12.8 281 17
2004-06-29 07:10:05 51°20.055 2°46.567 286 12.9 282 17.5
2004-06-29 07:10:09 51°20.058 2°46.544 286.2 12.9 282 18
2004-06-29 07:10:15 51°20.062 2°46.511 285.9 12.9 281 17.1
2004-06-29 07:10:20 51°20.066 2°46.483 285.7 12.9 282 15.4
2004-06-29 07:10:25 51°20.07 2°46.455 286 12.8 282 16.6
2004-06-29 07:10:30 51°20.073 2°46.427 286.2 12.8 282 15.3
2004-06-29 07:10:36 51°20.078 2°46.394 286.2 12.9 282 16.4
2004-06-29 07:10:40 51°20.081 2°46.371 286.3 12.8 282 17
2004-06-29 07:10:45 51°20.084 2°46.343 286 12.8 281 16.5
2004-06-29 07:10:50 51°20.087 2°46.315 285.2 12.9 280 16.2
2004-06-29 07:10:54 51°20.089 2°46.293 284.1 12.9 278 14.8
2004-06-29 07:11:00 51°20.091 2°46.259 282.2 12.7 277 14.9
2004-06-29 07:11:05 51°20.093 2°46.231 280.8 12.7 275 16.6
2004-06-29 07:11:10 51°20.094 2°46.203 279.8 12.8 275 14.9
2004-06-29 07:11:15 51°20.095 2°46.175 279.5 12.8 274 16.3
2004-06-29 07:11:20 51°20.097 2°46.146 278.8 12.8 274 16.9
2004-06-29 07:11:23 51°20.098 2°46.129 278.7 12.9 274 14.7
2004-06-29 07:11:30 51°20.1 2°46.09 278.7 12.8 275 16.1
2004-06-29 07:11:34 51°20.101 2°46.068 278.9 12.8 274 16.6
2004-06-29 07:11:40 51°20.103 2°46.033 278.7 12.9 275 16.9
2004-06-29 07:11:45 51°20.104 2°46.005 278.6 12.9 273 17.5
2004-06-29 07:11:49 51°20.105 2°45.982 278.4 12.9 274 16.8
2004-06-29 07:11:55 51°20.106 2°45.948 278.4 12.9 274 16
2004-06-29 07:12:00 51°20.108 2°45.92 278.4 12.9 275 15.9
2004-06-29 07:12:05 51°20.109 2°45.891 279.3 12.8 275 15.3
2004-06-29 07:12:10 51°20.11 2°45.863 279 12.9 274 16.1
2004-06-29 07:12:14 51°20.112 2°45.84 278.9 12.8 275 16.9
2004-06-29 07:12:20 51°20.113 2°45.806 278.6 12.9 274 17.5
2004-06-29 07:12:25 51°20.115 2°45.778 278.5 12.9 275 17.9
2004-06-29 07:12:30 51°20.116 2°45.749 278.8 12.9 275 18.4
2004-06-29 07:12:36 51°20.117 2°45.714 279.1 12.9 275 18.2
2004-06-29 07:12:40 51°20.119 2°45.692 278.7 12.9 275 13.8
2004-06-29 07:12:45 51°20.12 2°45.663 278.9 12.8 275 16.4
2004-06-29 07:12:50 51°20.122 2°45.635 279.1 12.7 274 19.3
2004-06-29 07:12:56 51°20.124 2°45.601 278.7 12.9 275 20.6
2004-06-29 07:13:00 51°20.125 2°45.578 279 13 274 21.3
2004-06-29 07:13:04 51°20.126 2°45.555 279 13 274 22
2004-06-29 07:13:10 51°20.127 2°45.521 278.7 13 274 22.4
2004-06-29 07:13:14 51°20.129 2°45.498 278.7 13 275 22.8
2004-06-29 07:13:20 51°20.131 2°45.464 279 13 275 23.3
2004-06-29 07:13:25 51°20.133 2°45.435 279.5 13 276 23.6
2004-06-29 07:13:30 51°20.134 2°45.407 279.4 13 275 23.9
2004-06-29 07:13:36 51°20.136 2°45.372 279.5 13 276 24.1
2004-06-29 07:13:40 51°20.137 2°45.349 279.3 12.9 275 24.1
2004-06-29 07:13:45 51°20.139 2°45.321 279.1 12.9 275 24.3
2004-06-29 07:13:50 51°20.141 2°45.292 279.3 12.9 275 24.2
2004-06-29 07:13:54 51°20.142 2°45.269 279 12.9 275 24.5
2004-06-29 07:14:00 51°20.144 2°45.235 278.9 13 274 24.6
2004-06-29 07:14:05 51°20.145 2°45.207 278.8 12.9 275 24.5
2004-06-29 07:14:10 51°20.147 2°45.178 278.6 12.9 275 24.8
2004-06-29 07:14:15 51°20.148 2°45.149 278.7 13 275 24.9
2004-06-29 07:14:20 51°20.15 2°45.121 279.4 13 276 24.9
2004-06-29 07:14:23 51°20.151 2°45.104 279.6 13 275 24.9
2004-06-29 07:14:30 51°20.153 2°45.063 279.1 13 275 25.1
2004-06-29 07:14:34 51°20.155 2°45.04 279.2 13 276 25.3
2004-06-29 07:14:40 51°20.157 2°45.006 279.4 13 276 25.4
2004-06-29 07:14:45 51°20.158 2°44.977 279.5 13 275 25.5
2004-06-29 07:14:49 51°20.16 2°44.954 279.2 13 275 25.5
2004-06-29 07:14:55 51°20.161 2°44.92 278.8 13 275 25.5
2004-06-29 07:15:00 51°20.163 2°44.891 278.9 13 276 25.6
2004-06-29 07:15:05 51°20.165 2°44.862 279.3 13 275 25.8
2004-06-29 07:15:10 51°20.166 2°44.834 279.2 13 275 26
2004-06-29 07:15:14 51°20.167 2°44.81 278.6 13 274 26
2004-06-29 07:15:20 51°20.169 2°44.776 278.5 13 275 26.2
2004-06-29 07:15:24 51°20.17 2°44.753 278.7 13 275 26.3
2004-06-29 07:15:30 51°20.172 2°44.719 279 13 275 26.4
2004-06-29 07:15:34 51°20.174 2°44.696 279 13 275 26.5
2004-06-29 07:15:40 51°20.175 2°44.661 278.9 13 275 26.5
2004-06-29 07:15:44 51°20.177 2°44.639 279.2 13 275 26.6
2004-06-29 07:15:49 51°20.178 2°44.61 279.2 13 275 26.7
2004-06-29 07:15:55 51°20.18 2°44.575 279.1 13 275 26.9
2004-06-29 07:16:00 51°20.182 2°44.547 279 13 275 27
2004-06-29 07:16:05 51°20.183 2°44.518 279 13 274 27
2004-06-29 07:16:10 51°20.185 2°44.49 279.3 12.9 276 26.9
2004-06-29 07:16:15 51°20.186 2°44.461 279 13 275 26.9
2004-06-29 07:16:19 51°20.188 2°44.438 278.7 13 276 25.8
2004-06-29 07:16:25 51°20.19 2°44.404 279.4 13 275 25.8
2004-06-29 07:16:29 51°20.191 2°44.381 279.5 12.9 275 26.6
2004-06-29 07:16:36 51°20.193 2°44.341 279.6 13 275 26.9
2004-06-29 07:16:40 51°20.195 2°44.318 279.6 13 275 27
2004-06-29 07:16:45 51°20.196 2°44.289 279.2 13 275 27.3
2004-06-29 07:16:50 51°20.198 2°44.261 279 13 275 27.5
2004-06-29 07:16:56 51°20.2 2°44.226 279.1 12.9 274 27.7
2004-06-29 07:17:00 51°20.201 2°44.204 278.9 12.9 275 27.7
2004-06-29 07:17:05 51°20.203 2°44.175 279.3 12.9 276 27.7
2004-06-29 07:17:10 51°20.205 2°44.147 280.3 12.9 278 27.8
2004-06-29 07:17:14 51°20.207 2°44.124 281.1 12.9 277 27.9
2004-06-29 07:17:20 51°20.21 2°44.09 281.7 12.9 279 28.1
2004-06-29 07:17:25 51°20.213 2°44.062 282.5 12.9 279 28.1
2004-06-29 07:17:30 51°20.216 2°44.034 282.8 12.9 279 27.9
2004-06-29 07:17:36 51°20.219 2°44 282.7 12.9 279 27.2
2004-06-29 07:17:40 51°20.221 2°43.977 282.7 12.9 278 27.7
2004-06-29 07:17:45 51°20.224 2°43.949 282.6 13 278 28.3
2004-06-29 07:17:50 51°20.226 2°43.921 282.3 12.9 278 28.5
2004-06-29 07:17:56 51°20.23 2°43.887 282.3 13 278 28.5
2004-06-29 07:18:00 51°20.232 2°43.864 282.3 12.9 279 28.5
2004-06-29 07:18:05 51°20.235 2°43.836 283.4 12.9 280 28.3
2004-06-29 07:18:10 51°20.238 2°43.808 284.2 12.9 280 28.3
2004-06-29 07:18:14 51°20.241 2°43.786 284.1 12.9 280 28.4
2004-06-29 07:18:20 51°20.246 2°43.753 284.6 12.9 281 28.3
2004-06-29 07:18:25 51°20.249 2°43.725 285 12.9 282 28.4
2004-06-29 07:18:29 51°20.252 2°43.703 285.4 12.8 282 28.4
2004-06-29 07:18:36 51°20.259 2°43.664 286.4 12.9 283 28.5
2004-06-29 07:18:40 51°20.263 2°43.642 288.3 12.8 286 28.4
2004-06-29 07:18:45 51°20.268 2°43.615 289.3 12.9 286 28.3
2004-06-29 07:18:50 51°20.273 2°43.588 290.3 12.9 288 28.4
2004-06-29 07:18:56 51°20.28 2°43.555 290.8 12.8 287 28.6
2004-06-29 07:19:00 51°20.284 2°43.533 291.2 12.9 288 28.8
2004-06-29 07:19:05 51°20.289 2°43.506 291.5 12.9 287 28.8
2004-06-29 07:19:10 51°20.295 2°43.479 291.2 12.9 288 28.8
2004-06-29 07:19:14 51°20.299 2°43.457 291.2 12.9 287 28.6
2004-06-29 07:19:19 51°20.304 2°43.43 291.1 12.9 288 28.5
2004-06-29 07:19:25 51°20.311 2°43.397 290.8 12.9 288 28.3
2004-06-29 07:19:30 51°20.316 2°43.37 291.1 12.9 288 28.4
2004-06-29 07:19:34 51°20.321 2°43.348 291 12.9 287 28.3
2004-06-29 07:19:40 51°20.327 2°43.316 290.9 12.8 288 28.1
2004-06-29 07:19:44 51°20.331 2°43.294 291 12.8 287 27.9
2004-06-29 07:19:50 51°20.338 2°43.261 290.5 12.9 287 28
2004-06-29 07:19:54 51°20.342 2°43.239 290.3 12.9 287 28
2004-06-29 07:20:00 51°20.348 2°43.207 290.3 12.8 287 27.9
2004-06-29 07:20:05 51°20.353 2°43.179 290.4 12.8 287 27.7
2004-06-29 07:20:10 51°20.358 2°43.152 290.9 12.8 287 27.8
2004-06-29 07:20:14 51°20.362 2°43.13 290.7 12.9 287 27.7
2004-06-29 07:20:19 51°20.368 2°43.103 290.6 12.9 288 27.5
2004-06-29 07:20:25 51°20.374 2°43.071 290.9 12.9 288 27.3
2004-06-29 07:20:30 51°20.379 2°43.043 290.9 12.9 287 27.2
2004-06-29 07:20:36 51°20.386 2°43.011 290.5 12.9 287 27.2
2004-06-29 07:20:40 51°20.39 2°42.989 290.6 12.8 287 26.9
2004-06-29 07:20:45 51°20.395 2°42.962 290.5 12.8 287 26.8
2004-06-29 07:20:50 51°20.4 2°42.935 290.3 12.8 287 26.4
2004-06-29 07:20:54 51°20.404 2°42.913 290.5 12.8 287 25.2
2004-06-29 07:21:00 51°20.411 2°42.88 290.5 12.9 286 25.4
2004-06-29 07:21:05 51°20.416 2°42.853 290 12.9 286 24.6
2004-06-29 07:21:09 51°20.42 2°42.831 289.9 12.9 286 23.4
2004-06-29 07:21:15 51°20.426 2°42.799 290.2 12.8 287 24.8
2004-06-29 07:21:20 51°20.431 2°42.771 290.8 12.8 287 25.3
2004-06-29 07:21:25 51°20.436 2°42.744 290.6 12.8 287 25.4
2004-06-29 07:21:30 51°20.442 2°42.717 290.5 12.8 287 25.4
2004-06-29 07:21:36 51°20.448 2°42.684 290.3 12.9 286 25
2004-06-29 07:21:39 51°20.451 2°42.668 290.7 12.8 287 22.5
2004-06-29 07:21:45 51°20.457 2°42.636 290.4 12.8 286 22.5
2004-06-29 07:21:49 51°20.462 2°42.614 290.5 12.8 288 23.6
2004-06-29 07:21:56 51°20.469 2°42.576 290.7 12.8 287 24.1
2004-06-29 07:22:00 51°20.473 2°42.554 290.4 12.8 287 23.9
2004-06-29 07:22:05 51°20.478 2°42.527 290.4 12.8 287 21.5
2004-06-29 07:22:10 51°20.483 2°42.5 290.9 12.8 287 23
2004-06-29 07:22:15 51°20.489 2°42.473 290.7 12.8 287 23.3
2004-06-29 07:22:20 51°20.494 2°42.446 290.7 12.8 287 22.3
2004-06-29 07:22:25 51°20.499 2°42.419 290.7 12.8 287 20.6
2004-06-29 07:22:30 51°20.504 2°42.392 290.4 12.8 287 21.8
2004-06-29 07:22:35 51°20.509 2°42.365 290.3 12.8 287 22.4
2004-06-29 07:22:40 51°20.514 2°42.338 290.3 12.8 287 22.5
2004-06-29 07:22:45 51°20.52 2°42.311 290.5 12.8 288 21.4
2004-06-29 07:22:50 51°20.525 2°42.283 290.9 12.8 287 19.9
2004-06-29 07:22:56 51°20.531 2°42.251 290.4 12.7 287 20.5
2004-06-29 07:23:00 51°20.535 2°42.23 290.4 12.7 287 21.2
2004-06-29 07:23:05 51°20.54 2°42.203 290.4 12.7 287 20.9
2004-06-29 07:23:10 51°20.545 2°42.176 290.2 12.7 287 17.1
2004-06-29 07:23:14 51°20.55 2°42.154 290.1 12.7 287 18.7
2004-06-29 07:23:20 51°20.556 2°42.122 290.3 12.7 287 20.5
2004-06-29 07:23:25 51°20.561 2°42.095 290.8 12.7 288 20.3
2004-06-29 07:23:29 51°20.565 2°42.074 290.8 12.7 287 20.2
2004-06-29 07:23:36 51°20.573 2°42.036 290.6 12.7 288 21
2004-06-29 07:23:40 51°20.577 2°42.015 290.8 12.7 287 21.7
2004-06-29 07:23:45 51°20.582 2°41.988 290.4 12.7 288 22.6
2004-06-29 07:23:50 51°20.587 2°41.961 290.5 12.8 287 23.3
2004-06-29 07:23:56 51°20.594 2°41.928 290.5 12.8 287 21
2004-06-29 07:24:00 51°20.598 2°41.907 290.8 12.7 287 21
2004-06-29 07:24:05 51°20.604 2°41.88 290.2 12.7 288 21.4
2004-06-29 07:24:09 51°20.608 2°41.859 290.8 12.7 288 21.3
2004-06-29 07:24:15 51°20.614 2°41.826 290.4 12.7 286 21.9
2004-06-29 07:24:20 51°20.619 2°41.799 290.2 12.7 287 22.3
2004-06-29 07:24:25 51°20.624 2°41.772 290.4 12.8 287 22.8
2004-06-29 07:24:30 51°20.63 2°41.745 290.5 12.7 288 23.4
2004-06-29 07:24:36 51°20.636 2°41.713 290.4 12.7 287 23.9
2004-06-29 07:24:40 51°20.641 2°41.692 290.3 12.8 289 24.3
2004-06-29 07:24:45 51°20.649 2°41.667 292.6 12.7 294 24.6
2004-06-29 07:24:49 51°20.655 2°41.647 297 12.7 298 25
2004-06-29 07:24:56 51°20.668 2°41.613 300.8 12.7 299 25.1
2004-06-29 07:25:00 51°20.676 2°41.595 303.6 12.7 304 23.9
2004-06-29 07:25:05 51°20.688 2°41.573 306.7 12.7 308 21.7
2004-06-29 07:25:10 51°20.7 2°41.553 310.7 12.7 312 23.4
2004-06-29 07:25:15 51°20.713 2°41.533 315 12.7 315 24.8
2004-06-29 07:25:18 51°20.721 2°41.522 318.4 12.9 319 25.8
2004-06-29 07:25:25 51°20.74 2°41.498 321 12.9 321 26.6
2004-06-29 07:25:30 51°20.755 2°41.48 322.9 12.9 323 27.1
2004-06-29 07:25:35 51°20.77 2°41.466 326.9 13 329 27.3
2004-06-29 07:25:40 51°20.786 2°41.452 330.2 13 333 27.7
2004-06-29 07:25:46 51°20.807 2°41.439 334.6 13.1 337 27.8
2004-06-29 07:25:50 51°20.82 2°41.432 339 13.1 339 28
2004-06-29 07:25:56 51°20.842 2°41.422 342.4 13.1 342 28
2004-06-29 07:26:00 51°20.856 2°41.416 345.2 13.3 345 27.9
2004-06-29 07:26:05 51°20.874 2°41.41 346.4 13.4 347 27.5
2004-06-29 07:26:10 51°20.892 2°41.403 348.2 13.4 347 27.2
2004-06-29 07:26:14 51°20.907 2°41.398 349.5 13.5 348 27.1
2004-06-29 07:26:20 51°20.929 2°41.391 349.2 13.4 348 27.4
2004-06-29 07:26:25 51°20.947 2°41.385 349.8 13.4 350 27.8
2004-06-29 07:26:30 51°20.965 2°41.379 351.1 13.5 349 27.5
2004-06-29 07:26:35 51°20.984 2°41.374 351.4 13.6 349 27.5
2004-06-29 07:26:38 51°20.995 2°41.37 351.2 13.5 349 27.5
2004-06-29 07:26:45 51°21.021 2°41.362 350 13.4 348 27.7
2004-06-29 07:26:50 51°21.039 2°41.359 351.4 13.5 353 27.7
2004-06-29 07:26:56 51°21.062 2°41.355 354.2 13.7 353 27.2
2004-06-29 07:27:00 51°21.077 2°41.354 356.3 13.6 357 26.4
2004-06-29 07:27:05 51°21.096 2°41.352 357.8 13.5 355 26.4
2004-06-29 07:27:10 51°21.114 2°41.351 358.3 13.5 357 27.2
2004-06-29 07:27:16 51°21.137 2°41.351 359.5 13.5 359 27.3
2004-06-29 07:27:20 51°21.152 2°41.35 1 13.5 359 26.2
2004-06-29 07:27:23 51°21.163 2°41.35 1.1 13.6   26.6
2004-06-29 07:27:30 51°21.189 2°41.349 0.9 13.6 359 28.4
2004-06-29 07:27:34 51°21.204 2°41.348 0.1 13.5 358 28.2
2004-06-29 07:27:40 51°21.227 2°41.347 0.6 13.5 358 27.4
2004-06-29 07:27:45 51°21.246 2°41.347 0.2 13.5 359 26.8
2004-06-29 07:27:50 51°21.264 2°41.347 1.4 13.5 1 25.6
2004-06-29 07:27:54 51°21.279 2°41.347 1.1 13.6   26.9
2004-06-29 07:28:00 51°21.302 2°41.348 1.8 13.6   27.5
2004-06-29 07:28:05 51°21.321 2°41.347 2.1 13.6   26.4
2004-06-29 07:28:10 51°21.34 2°41.348 2 13.6   24.2
2004-06-29 07:28:14 51°21.355 2°41.347 2.1 13.6   27.3
2004-06-29 07:28:20 51°21.378 2°41.347 2.1 13.7 358 27.8
2004-06-29 07:28:25 51°21.397 2°41.346 1.1 13.7 359 27.4
2004-06-29 07:28:30 51°21.416 2°41.346 0.3 13.7 359 26.9
2004-06-29 07:28:36 51°21.439 2°41.346 0.9 13.7   25.3
2004-06-29 07:28:40 51°21.454 2°41.345 1.6 13.8 359 27.8
2004-06-29 07:28:45 51°21.473 2°41.345 1.3 13.8 359 28.7
2004-06-29 07:28:50 51°21.492 2°41.345 2 13.8 1 29
2004-06-29 07:28:56 51°21.515 2°41.344 2 13.8 359 29
2004-06-29 07:29:00 51°21.53 2°41.345 1.8 13.8 1 28.9
2004-06-29 07:29:05 51°21.549 2°41.344 1.6 13.7 357 28.7
2004-06-29 07:29:10 51°21.568 2°41.345 1.7 13.7 2 28.4
2004-06-29 07:29:14 51°21.583 2°41.344 1 13.7 358 27.7
2004-06-29 07:29:20 51°21.606 2°41.344 1.3 13.6   25.8
2004-06-29 07:29:25 51°21.625 2°41.343 2.2 13.6 359 27.9
2004-06-29 07:29:30 51°21.644 2°41.344 1.5 13.5   28.5
2004-06-29 07:29:36 51°21.666 2°41.343 2.1 13.6 359 28.8
2004-06-29 07:29:40 51°21.681 2°41.343 1 13.6 2 28.7
2004-06-29 07:29:45 51°21.7 2°41.343 2.6 13.6   28.2
2004-06-29 07:29:49 51°21.715 2°41.343 1.7 13.5 359 26.3
2004-06-29 07:29:55 51°21.738 2°41.343 1.2 13.5 1 28.7
2004-06-29 07:30:00 51°21.757 2°41.344 2.3 13.6 1 29.3
2004-06-29 07:30:05 51°21.775 2°41.343 1.7 13.5 359 29.7
2004-06-29 07:30:09 51°21.79 2°41.344 1.6 13.5 1 29.6
2004-06-29 07:30:15 51°21.813 2°41.343 1.6 13.5 359 29.6
2004-06-29 07:30:21 51°21.836 2°41.345 1.6 13.6 3 29.4
2004-06-29 07:30:26 51°21.855 2°41.343 2.8 13.6 358 28.9
2004-06-29 07:30:29 51°21.866 2°41.344 1.2 13.5 359 27.6
2004-06-29 07:30:35 51°21.888 2°41.345 1.9 13.5 2 29
2004-06-29 07:30:40 51°21.907 2°41.344 1.5 13.6 359 29.6
2004-06-29 07:30:45 51°21.926 2°41.346 2.3 13.7 4 29.8
2004-06-29 07:30:49 51°21.941 2°41.345 2.7 13.6 359 29.8
2004-06-29 07:30:55 51°21.964 2°41.346 2 13.6   29.8
2004-06-29 07:31:00 51°21.983 2°41.345 1.6 13.6 359 29.8
2004-06-29 07:31:05 51°22.002 2°41.346 1.5 13.6 1 29.9
2004-06-29 07:31:10 51°22.02 2°41.345 1.5 13.6 359 29.9
2004-06-29 07:31:13 51°22.032 2°41.346 1.9 13.6 1 29.8
2004-06-29 07:31:20 51°22.058 2°41.347 3.3 13.5   29.8
2004-06-29 07:31:25 51°22.077 2°41.348 2.9 13.5 2 29.5
2004-06-29 07:31:29 51°22.092 2°41.348 2.9 13.6 1 29
2004-06-29 07:31:32 51°22.103 2°41.349 3.3 13.7 1 27.4
2004-06-29 07:31:40 51°22.134 2°41.349 3 13.7 359 27.4
2004-06-29 07:31:45 51°22.153 2°41.35 1.8 13.7 1 27.6
2004-06-29 07:31:49 51°22.168 2°41.349 1.6 13.6   28.9
2004-06-29 07:31:55 51°22.191 2°41.35 1.5 13.7   29.8
2004-06-29 07:32:00 51°22.209 2°41.349 1.7 13.6 359 30.3
2004-06-29 07:32:05 51°22.228 2°41.35 1.4 13.6 1 30.5
2004-06-29 07:32:10 51°22.247 2°41.349 1.9 13.7   30.2
2004-06-29 07:32:15 51°22.266 2°41.35 1.4 13.7 1 30.4
2004-06-29 07:32:20 51°22.285 2°41.349 2.1 13.7 358 30.5
2004-06-29 07:32:25 51°22.304 2°41.35 1.3 13.7 1 30.3
2004-06-29 07:32:30 51°22.323 2°41.349 1 13.6 359 29.9
2004-06-29 07:32:36 51°22.346 2°41.35 1.4 13.8 2 29.7
2004-06-29 07:32:40 51°22.361 2°41.349 2.2 13.6 359 29
2004-06-29 07:32:45 51°22.38 2°41.351 2.1 13.8 3 27.7
2004-06-29 07:32:50 51°22.4 2°41.351 2.4 13.8 359 28
2004-06-29 07:32:56 51°22.422 2°41.352 2.6 13.8 2 29.1
2004-06-29 07:33:00 51°22.438 2°41.351 2.2 13.7 359 29.5
2004-06-29 07:33:05 51°22.457 2°41.352 1.9 13.8 1 29.8
2004-06-29 07:33:09 51°22.472 2°41.351 1.2 13.7 358 30.3
2004-06-29 07:33:15 51°22.495 2°41.351 1.8 13.7 1 30.4
2004-06-29 07:33:20 51°22.514 2°41.352 1.9 13.7   31
2004-06-29 07:33:25 51°22.533 2°41.353 1.9 13.7 3 31.5
2004-06-29 07:33:30 51°22.552 2°41.353 2.9 13.7 1 31.6
2004-06-29 07:33:36 51°22.575 2°41.355 2.5 13.7 1 31.2
2004-06-29 07:33:40 51°22.59 2°41.354 2.8 13.7   31
2004-06-29 07:33:45 51°22.609 2°41.355 1.4 13.7 2 31.1
2004-06-29 07:33:49 51°22.624 2°41.354 2.5 13.7 359 31.1
2004-06-29 07:33:54 51°22.643 2°41.355 2.3 13.7 1 31.5
2004-06-29 07:34:00 51°22.665 2°41.355 1.4 13.7   31.6
2004-06-29 07:34:04 51°22.681 2°41.356 1.9 13.7 1 31.6
2004-06-29 07:34:10 51°22.703 2°41.356 1.4 13.7   31.7
2004-06-29 07:34:16 51°22.726 2°41.356 1.9 13.7 1 31.7
2004-06-29 07:34:20 51°22.742 2°41.357 2.4 13.8 2 31.9
2004-06-29 07:34:25 51°22.761 2°41.356 2.7 13.8 359 31.9
2004-06-29 07:34:30 51°22.78 2°41.357 1.5 13.8   31.6
2004-06-29 07:34:35 51°22.799 2°41.356 1 13.8 359 31.4
2004-06-29 07:34:40 51°22.818 2°41.356 1 13.8   31.4
2004-06-29 07:34:45 51°22.837 2°41.356 0.8 13.7 359 31.4
2004-06-29 07:34:49 51°22.852 2°41.357 1.3 13.7 1 30.9
2004-06-29 07:34:55 51°22.875 2°41.357 1.9 13.7 1 30.6
2004-06-29 07:35:00 51°22.894 2°41.357 2.4 13.8   30.7
2004-06-29 07:35:05 51°22.913 2°41.357 1.7 13.7   30.3
2004-06-29 07:35:09 51°22.928 2°41.358 2 13.7 2 30.4
2004-06-29 07:35:15 51°22.951 2°41.359 3.1 13.8   30.2
2004-06-29 07:35:20 51°22.971 2°41.36 2.7 13.8 2 30.7
2004-06-29 07:35:24 51°22.986 2°41.359 1.8 13.8 2 30.9
2004-06-29 07:35:30 51°23.009 2°41.36 1.5 13.9 1 30.4
2004-06-29 07:35:36 51°23.032 2°41.359 1.4 13.7 359 30.5
2004-06-29 07:35:40 51°23.047 2°41.36 2 13.8 2 30.3
2004-06-29 07:35:45 51°23.066 2°41.359 1.9 13.8   30.4
2004-06-29 07:35:49 51°23.081 2°41.361 2.9 13.8 3 30.4
2004-06-29 07:35:56 51°23.108 2°41.361 2.9 13.8   30.5
2004-06-29 07:36:00 51°23.124 2°41.362 2.9 13.8 1 30.6
2004-06-29 07:36:05 51°23.143 2°41.362 2.4 13.8   30.5
2004-06-29 07:36:10 51°23.162 2°41.362 1.6 13.8 1 30.5
2004-06-29 07:36:22 51°23.208 2°41.363 2.6 13.8 1 30.1
2004-06-29 07:36:28 51°23.231 2°41.364 2.3 13.7 359 29.6
2004-06-29 07:36:32 51°23.246 2°41.363 2.8 13.7   29.4
2004-06-29 07:36:37 51°23.265 2°41.364 2.4 13.7 1 29.6
2004-06-29 07:36:42 51°23.284 2°41.363 1.8 13.7 359 30.2
2004-06-29 07:36:46 51°23.299 2°41.364 2.1 13.7   30
2004-06-29 07:36:53 51°23.325 2°41.365 2.9 13.6 1 30.8
2004-06-29 07:36:57 51°23.34 2°41.365 2.5 13.6   31.1
2004-06-29 07:37:02 51°23.359 2°41.365 2.1 13.6 1 31.3
2004-06-29 07:37:08 51°23.382 2°41.367 2.7 13.7 2 30.9
2004-06-29 07:37:12 51°23.397 2°41.368 3.4 13.6 3 30.6
2004-06-29 07:37:17 51°23.416 2°41.368 3.6 13.7 1 31.2
2004-06-29 07:37:22 51°23.435 2°41.37 2 13.6 1 31.2
2004-06-29 07:37:26 51°23.45 2°41.369 3.3 13.7 2 30.6
2004-06-29 07:37:32 51°23.473 2°41.369 2.3 13.6 359 29.9
2004-06-29 07:37:37 51°23.492 2°41.37 1.9 13.7 2 30.8
2004-06-29 07:37:40 51°23.503 2°41.369 1.9 13.5 357 31.6
2004-06-29 07:37:48 51°23.533 2°41.367 0.7 13.6   31.9
2004-06-29 07:37:50 51°23.541 2°41.365 357.8 13.5 353 32
2004-06-29 07:37:56 51°23.563 2°41.361 356.2 13.5 354 32
2004-06-29 07:38:00 51°23.578 2°41.357 354.6 13.5 350 31.4
2004-06-29 07:38:07 51°23.604 2°41.35 352.6 13.5 350 31.1
2004-06-29 07:38:12 51°23.622 2°41.344 350.7 13.5 348 30.6
2004-06-29 07:38:16 51°23.637 2°41.339 349.8 13.5 348 30.3
2004-06-29 07:38:22 51°23.658 2°41.33 349.6 13.5 348 30.4
2004-06-29 07:38:26 51°23.673 2°41.325 348.3 13.4 346 29.9
2004-06-29 07:38:32 51°23.695 2°41.317 349.3 13.5 346 30.3
2004-06-29 07:38:37 51°23.713 2°41.311 348.3 13.5 348 30.3
2004-06-29 07:38:42 51°23.732 2°41.304 349.1 13.6 348 29.7
2004-06-29 07:38:47 51°23.75 2°41.298 349.3 13.5 347 29.7
2004-06-29 07:38:49 51°23.757 2°41.295 349 13.6 347 29.7
2004-06-29 07:38:57 51°23.787 2°41.284 348.7 13.5 347 29.8
2004-06-29 07:39:00 51°23.797 2°41.28 348.2 13.5 347 30.2
2004-06-29 07:39:07 51°23.823 2°41.27 348.4 13.5 346 30.3
2004-06-29 07:39:12 51°23.841 2°41.264 348.5 13.5 348 30.3
2004-06-29 07:39:17 51°23.859 2°41.258 349.3 13.5 348 30.1
2004-06-29 07:39:30 51°23.907 2°41.242 349.8 13.6 349 27.8
2004-06-29 07:39:36 51°23.929 2°41.235 349.1 13.5 347 27.5
2004-06-29 07:39:40 51°23.944 2°41.23 349.4 13.5 348 31.2
2004-06-29 07:39:45 51°23.962 2°41.223 349.3 13.5 347 31.7
2004-06-29 07:39:50 51°23.981 2°41.217 349.5 13.5 348 31.4
2004-06-29 07:39:54 51°23.995 2°41.211 349.1 13.5 347 31.2
2004-06-29 07:40:00 51°24.018 2°41.205 349.5 13.5 349 30.6
2004-06-29 07:40:05 51°24.036 2°41.199 350.1 13.5 348 30.1
2004-06-29 07:40:10 51°24.054 2°41.193 350.8 13.5 350 28.8
2004-06-29 07:40:16 51°24.076 2°41.186 350.5 13.4 348 29.3
2004-06-29 07:40:20 51°24.09 2°41.182 350.7 13.5 349 29.7
2004-06-29 07:40:25 51°24.109 2°41.176 350.7 13.4 349 29.8
2004-06-29 07:40:29 51°24.124 2°41.171 350.6 13.5 350 29.5
2004-06-29 07:40:34 51°24.142 2°41.165 350.3 13.4 347 29.4
2004-06-29 07:40:40 51°24.164 2°41.158 349.8 13.5 349 29.4
2004-06-29 07:40:44 51°24.178 2°41.152 349.8 13.5 347 29
2004-06-29 07:40:50 51°24.2 2°41.146 349.9 13.4 349 28.6
2004-06-29 07:40:55 51°24.219 2°41.14 349.8 13.4 349 28.5
2004-06-29 07:41:00 51°24.237 2°41.134 350.2 13.5 349 27.5
2004-06-29 07:41:05 51°24.255 2°41.129 350.5 13.5 349 26.7
2004-06-29 07:41:10 51°24.274 2°41.123 350.5 13.6 348 26.5
2004-06-29 07:41:15 51°24.292 2°41.116 349.7 13.5 347 29.3
2004-06-29 07:41:20 51°24.31 2°41.11 349.1 13.5 349 30.1
2004-06-29 07:41:25 51°24.329 2°41.104 349.7 13.5 348 30.2
2004-06-29 07:41:30 51°24.347 2°41.098 349.9 13.5 349 29.9
2004-06-29 07:41:34 51°24.362 2°41.093 349.9 13.5 348 29.3
2004-06-29 07:41:40 51°24.384 2°41.086 349.7 13.6 349 28.1
2004-06-29 07:41:45 51°24.402 2°41.079 349.8 13.5 347 25
2004-06-29 07:41:50 51°24.421 2°41.073 348.8 13.4 348 27.1
2004-06-29 07:41:55 51°24.439 2°41.067 349.6 13.5 349 29.3
2004-06-29 07:42:01 51°24.461 2°41.06 349.8 13.4 348 29.2
2004-06-29 07:42:05 51°24.476 2°41.055 349.6 13.5 349 27.1
2004-06-29 07:42:10 51°24.494 2°41.048 350 13.5 348 26.3
2004-06-29 07:42:15 51°24.512 2°41.043 349.8 13.5 348 28.1
2004-06-29 07:42:20 51°24.53 2°41.036 350.4 13.5 348 29.2
2004-06-29 07:42:23 51°24.542 2°41.034 350.2 13.6 350 28.9
2004-06-29 07:42:30 51°24.567 2°41.024 350.4 13.5 347 28.7
2004-06-29 07:42:36 51°24.589 2°41.018 350.2 13.6 349 28.6
2004-06-29 07:42:40 51°24.604 2°41.012 350.2 13.6 346 28.3
2004-06-29 07:42:45 51°24.622 2°41.006 349.3 13.6 349 25.6
2004-06-29 07:42:50 51°24.641 2°41 348.9 13.4 348 24.5
2004-06-29 07:42:56 51°24.663 2°40.993 349.8 13.5 348 26.5
2004-06-29 07:43:00 51°24.678 2°40.989 350.2 13.6 350 26.5
2004-06-29 07:43:05 51°24.696 2°40.982 350.4 13.5 347 26.8
2004-06-29 07:43:09 51°24.711 2°40.979 350 13.5 350 26.5
2004-06-29 07:43:16 51°24.737 2°40.97 350.3 13.6 348 27.2
2004-06-29 07:43:20 51°24.752 2°40.966 351.3 13.6 348 27.9
2004-06-29 07:43:25 51°24.77 2°40.959 349.6 13.5 347 28.2
2004-06-29 07:43:29 51°24.785 2°40.955 350.1 13.5 350 28.2
2004-06-29 07:43:36 51°24.811 2°40.946 350.5 13.5 348 27.8
2004-06-29 07:43:40 51°24.825 2°40.941 350.1 13.6 349 28.7
2004-06-29 07:43:45 51°24.844 2°40.936 350.6 13.5 350 28.2
2004-06-29 07:43:50 51°24.862 2°40.929 350.5 13.5 348 28.4
2004-06-29 07:43:55 51°24.881 2°40.924 349.8 13.5 350 28.4
2004-06-29 07:44:00 51°24.899 2°40.916 349.2 13.4 346 26.7
2004-06-29 07:44:03 51°24.91 2°40.913 349.8 13.5 349 26.3
2004-06-29 07:44:09 51°24.932 2°40.906 350.3 13.5 348 27.8
2004-06-29 07:44:16 51°24.958 2°40.898 350.3 13.5 349 28
2004-06-29 07:44:20 51°24.972 2°40.892 349.8 13.6 348 27.9
2004-06-29 07:44:25 51°24.991 2°40.887 350.1 13.6 349 27.4